createdAt,value
2018-07-10T00:02:29.013Z,22.83
2018-07-10T00:07:05.984Z,22.86
2018-07-10T00:09:39.144Z,22.09
2018-07-10T00:12:06.886Z,22.50
2018-07-10T00:14:34.558Z,22.67
2018-07-10T00:17:01.291Z,22.78
2018-07-10T00:19:27.985Z,22.82
2018-07-10T00:21:54.658Z,22.82
2018-07-10T00:24:21.352Z,22.85
2018-07-10T00:26:48.012Z,22.85
2018-07-10T00:29:14.705Z,22.83
2018-07-10T00:31:41.344Z,22.84
2018-07-10T00:34:08.031Z,22.82
2018-07-10T00:36:34.705Z,22.80
2018-07-10T00:39:05.043Z,22.80
2018-07-10T00:41:34.448Z,22.81
2018-07-10T00:44:04.446Z,22.83
2018-07-10T00:46:32.009Z,22.78
2018-07-10T00:48:58.665Z,22.68
2018-07-10T00:51:25.364Z,22.74
2018-07-10T00:53:52.732Z,22.73
2018-07-10T00:56:19.396Z,22.77
2018-07-10T00:58:46.915Z,22.74
2018-07-10T01:01:13.577Z,22.78
2018-07-10T01:03:40.256Z,22.78
2018-07-10T01:06:06.918Z,22.83
2018-07-10T01:08:34.318Z,22.81
2018-07-10T01:11:04.086Z,22.76
2018-07-10T01:13:31.860Z,22.75
2018-07-10T01:15:58.533Z,22.74
2018-07-10T01:18:26.710Z,22.74
2018-07-10T01:20:53.409Z,22.74
2018-07-10T01:23:21.358Z,22.67
2018-07-10T01:25:48.057Z,22.76
2018-07-10T01:28:14.761Z,22.76
2018-07-10T01:30:41.443Z,22.68
2018-07-10T01:33:08.114Z,22.71
2018-07-10T01:35:34.809Z,22.71
2018-07-10T01:38:03.601Z,22.69
2018-07-10T01:40:30.310Z,22.63
2018-07-10T01:42:56.977Z,22.74
2018-07-10T01:45:23.677Z,22.68
2018-07-10T01:47:50.341Z,22.71
2018-07-10T01:50:17.026Z,22.68
2018-07-10T01:52:43.784Z,22.69
2018-07-10T01:55:10.451Z,22.67
2018-07-10T01:57:37.136Z,22.67
2018-07-10T02:00:05.048Z,22.71
2018-07-10T02:02:31.724Z,22.66
2018-07-10T02:04:58.404Z,22.70
2018-07-10T02:07:25.509Z,22.70
2018-07-10T02:09:52.164Z,22.68
2018-07-10T02:12:18.820Z,22.69
2018-07-10T02:14:45.505Z,22.65
2018-07-10T02:17:12.154Z,22.64
2018-07-10T02:19:38.826Z,22.68
2018-07-10T02:22:05.497Z,22.71
2018-07-10T02:24:32.170Z,22.68
2018-07-10T02:26:58.856Z,22.64
2018-07-10T02:29:25.536Z,22.62
2018-07-10T02:31:52.188Z,22.63
2018-07-10T02:34:18.870Z,22.59
2018-07-10T02:36:45.572Z,22.59
2018-07-10T02:39:12.290Z,22.64
2018-07-10T02:41:39.181Z,22.61
2018-07-10T02:44:05.961Z,22.60
2018-07-10T02:46:35.725Z,22.61
2018-07-10T02:49:09.767Z,22.57
2018-07-10T02:51:36.896Z,22.49
2018-07-10T02:54:04.825Z,22.50
2018-07-10T02:56:32.152Z,22.52
2018-07-10T02:58:59.874Z,22.55
2018-07-10T03:01:27.213Z,22.56
2018-07-10T03:03:53.934Z,22.50
2018-07-10T03:06:20.618Z,22.47
2018-07-10T03:08:47.286Z,22.51
2018-07-10T03:11:14.017Z,22.48
2018-07-10T03:13:41.261Z,22.52
2018-07-10T03:16:08.145Z,22.49
2018-07-10T03:18:34.809Z,22.58
2018-07-10T03:21:02.407Z,22.48
2018-07-10T03:23:29.106Z,22.49
2018-07-10T03:25:55.784Z,22.50
2018-07-10T03:28:22.455Z,22.52
2018-07-10T03:30:49.132Z,22.52
2018-07-10T03:33:15.805Z,22.49
2018-07-10T03:35:42.462Z,22.47
2018-07-10T03:38:09.184Z,22.54
2018-07-10T03:40:35.861Z,22.51
2018-07-10T03:43:03.539Z,22.45
2018-07-10T03:45:31.228Z,22.48
2018-07-10T03:47:57.917Z,22.50
2018-07-10T03:50:24.594Z,22.54
2018-07-10T03:52:52.613Z,22.51
2018-07-10T03:55:19.287Z,22.50
2018-07-10T03:57:46.944Z,22.53
2018-07-10T04:00:14.717Z,22.53
2018-07-10T04:02:45.179Z,22.49
2018-07-10T04:05:11.953Z,22.49
2018-07-10T04:07:38.985Z,22.51
2018-07-10T04:10:05.644Z,22.55
2018-07-10T04:12:33.865Z,22.54
2018-07-10T04:15:01.842Z,22.59
2018-07-10T04:17:33.732Z,22.53
2018-07-10T04:20:00.425Z,22.55
2018-07-10T04:22:27.151Z,22.48
2018-07-10T04:24:54.031Z,22.58
2018-07-10T04:27:27.748Z,22.53
2018-07-10T04:29:57.157Z,22.52
2018-07-10T04:32:23.863Z,22.52
2018-07-10T04:34:50.726Z,22.51
2018-07-10T04:37:17.430Z,22.53
2018-07-10T04:39:44.276Z,22.49
2018-07-10T04:42:31.750Z,22.50
2018-07-10T04:45:02.180Z,22.41
2018-07-10T04:47:34.221Z,22.51
2018-07-10T04:50:04.846Z,22.52
2018-07-10T04:52:32.336Z,22.52
2018-07-10T04:55:05.354Z,22.50
2018-07-10T04:57:38.802Z,22.49
2018-07-10T05:00:05.953Z,22.48
2018-07-10T05:02:34.205Z,22.53
2018-07-10T05:05:00.964Z,22.52
2018-07-10T05:07:27.781Z,22.63
2018-07-10T05:09:54.549Z,22.56
2018-07-10T05:12:21.353Z,22.59
2018-07-10T05:14:48.061Z,22.55
2018-07-10T05:17:15.108Z,22.49
2018-07-10T05:19:41.793Z,22.53
2018-07-10T05:22:08.481Z,22.57
2018-07-10T05:24:35.204Z,22.52
2018-07-10T05:27:01.900Z,22.52
2018-07-10T05:29:28.560Z,22.51
2018-07-10T05:31:55.306Z,22.52
2018-07-10T05:34:21.989Z,22.49
2018-07-10T05:36:48.981Z,22.54
2018-07-10T05:39:15.650Z,22.51
2018-07-10T05:41:42.416Z,22.50
2018-07-10T05:44:09.105Z,22.54
2018-07-10T05:46:35.790Z,22.50
2018-07-10T05:49:04.456Z,22.46
2018-07-10T05:51:41.767Z,22.46
2018-07-10T05:54:08.429Z,22.52
2018-07-10T05:56:35.236Z,22.51
2018-07-10T05:59:03.653Z,22.47
2018-07-10T06:01:31.372Z,22.47
2018-07-10T06:03:58.112Z,22.47
2018-07-10T06:06:25.233Z,22.44
2018-07-10T06:08:51.929Z,22.41
2018-07-10T06:11:18.600Z,22.46
2018-07-10T06:13:45.309Z,22.42
2018-07-10T06:16:12.507Z,22.39
2018-07-10T06:18:39.133Z,22.42
2018-07-10T06:21:05.817Z,22.50
2018-07-10T06:23:36.192Z,22.43
2018-07-10T06:26:04.225Z,22.49
2018-07-10T06:28:31.945Z,22.39
2018-07-10T06:31:02.070Z,22.40
2018-07-10T06:33:28.741Z,22.39
2018-07-10T06:36:18.114Z,22.47
2018-07-10T06:38:46.517Z,22.41
2018-07-10T06:41:13.209Z,22.42
2018-07-10T06:43:42.749Z,22.40
2018-07-10T06:46:11.271Z,22.39
2018-07-10T06:48:40.605Z,22.39
2018-07-10T06:51:08.969Z,22.43
2018-07-10T06:53:35.667Z,22.41
2018-07-10T06:56:02.364Z,22.36
2018-07-10T06:58:33.430Z,22.34
2018-07-10T07:01:00.850Z,22.39
2018-07-10T07:03:27.529Z,22.36
2018-07-10T07:05:54.181Z,22.36
2018-07-10T07:08:22.016Z,22.37
2018-07-10T07:10:48.701Z,22.31
2018-07-10T07:13:15.430Z,22.33
2018-07-10T07:15:42.106Z,22.36
2018-07-10T07:18:08.801Z,22.37
2018-07-10T07:20:35.476Z,22.39
2018-07-10T07:23:02.339Z,22.37
2018-07-10T07:25:29.009Z,22.38
2018-07-10T07:27:55.690Z,22.34
2018-07-10T07:30:22.373Z,22.37
2018-07-10T07:32:49.044Z,22.38
2018-07-10T07:35:15.992Z,22.46
2018-07-10T07:37:42.681Z,22.40
2018-07-10T07:40:09.433Z,22.38
2018-07-10T07:42:36.312Z,22.33
2018-07-10T07:45:04.293Z,22.39
2018-07-10T07:47:31.071Z,22.32
2018-07-10T07:49:57.717Z,22.31
2018-07-10T07:52:26.138Z,22.26
2018-07-10T07:54:53.040Z,22.22
2018-07-10T07:57:20.964Z,22.27
2018-07-10T07:59:47.645Z,22.25
2018-07-10T08:02:14.477Z,22.22
2018-07-10T08:04:41.152Z,22.26
2018-07-10T08:07:08.125Z,22.26
2018-07-10T08:09:34.805Z,22.27
2018-07-10T08:12:01.849Z,22.17
2018-07-10T08:14:28.581Z,22.25
2018-07-10T08:16:55.308Z,22.26
2018-07-10T08:19:21.977Z,22.26
2018-07-10T08:21:50.034Z,22.22
2018-07-10T08:24:18.340Z,22.21
2018-07-10T08:26:45.297Z,22.20
2018-07-10T08:29:12.041Z,22.19
2018-07-10T08:31:39.061Z,22.21
2018-07-10T08:34:05.811Z,22.19
2018-07-10T08:36:33.585Z,22.23
2018-07-10T08:39:01.422Z,22.14
2018-07-10T08:41:31.958Z,22.20
2018-07-10T08:43:58.649Z,22.21
2018-07-10T08:46:26.401Z,22.25
2018-07-10T08:48:53.080Z,22.19
2018-07-10T08:51:19.769Z,22.23
2018-07-10T08:53:46.453Z,22.23
2018-07-10T08:56:13.145Z,22.26
2018-07-10T08:58:40.214Z,22.25
2018-07-10T09:01:06.893Z,22.26
2018-07-10T09:03:34.528Z,22.25
2018-07-10T09:06:02.105Z,22.19
2018-07-10T09:08:28.809Z,22.21
2018-07-10T09:10:55.571Z,22.18
2018-07-10T09:13:22.265Z,22.21
2018-07-10T09:15:48.992Z,22.23
2018-07-10T09:18:15.686Z,22.20
2018-07-10T09:20:45.681Z,22.22
2018-07-10T09:23:12.369Z,22.22
2018-07-10T09:25:39.052Z,22.18
2018-07-10T09:28:05.745Z,22.20
2018-07-10T09:30:33.485Z,22.17
2018-07-10T09:33:01.296Z,22.18
2018-07-10T09:35:28.817Z,22.27
2018-07-10T09:37:55.522Z,22.34
2018-07-10T09:40:22.318Z,22.42
2018-07-10T09:42:49.688Z,22.43
2018-07-10T09:45:16.361Z,22.47
2018-07-10T09:47:43.057Z,22.53
2018-07-10T09:50:09.721Z,22.52
2018-07-10T09:52:36.418Z,22.48
2018-07-10T09:55:04.297Z,22.45
2018-07-10T09:57:31.732Z,22.48
2018-07-10T09:59:58.463Z,22.45
2018-07-10T10:02:32.134Z,22.48
2018-07-10T10:04:59.300Z,22.45
2018-07-10T10:07:27.026Z,22.47
2018-07-10T10:09:53.696Z,22.41
2018-07-10T10:12:20.488Z,22.52
2018-07-10T10:14:47.186Z,22.69
2018-07-10T10:17:14.307Z,22.79
2018-07-10T10:19:41.001Z,22.90
2018-07-10T10:22:07.700Z,22.96
2018-07-10T10:24:34.424Z,22.97
2018-07-10T10:27:01.181Z,23.04
2018-07-10T10:29:27.889Z,23.09
2018-07-10T10:31:54.604Z,23.08
2018-07-10T10:34:21.329Z,23.10
2018-07-10T10:36:48.076Z,23.06
2018-07-10T10:39:14.809Z,23.06
2018-07-10T10:41:42.510Z,23.08
2018-07-10T10:44:09.251Z,23.04
2018-07-10T10:46:35.916Z,23.06
2018-07-10T10:49:03.829Z,23.04
2018-07-10T10:51:30.648Z,23.04
2018-07-10T10:53:57.345Z,23.03
2018-07-10T10:56:24.052Z,23.00
2018-07-10T10:58:50.839Z,22.95
2018-07-10T11:01:17.564Z,23.04
2018-07-10T11:03:44.236Z,23.01
2018-07-10T11:06:12.714Z,23.04
2018-07-10T11:08:39.413Z,23.03
2018-07-10T11:11:06.090Z,23.01
2018-07-10T11:13:34.317Z,23.01
2018-07-10T11:16:02.238Z,22.92
2018-07-10T11:18:31.704Z,22.89
2018-07-10T11:21:02.136Z,22.88
2018-07-10T11:23:59.788Z,22.92
2018-07-10T11:26:34.096Z,22.75
2018-07-10T11:29:01.995Z,22.84
2018-07-10T11:31:28.709Z,22.90
2018-07-10T11:33:55.441Z,22.96
2018-07-10T11:36:22.114Z,22.88
2018-07-10T11:38:48.845Z,22.94
2018-07-10T11:41:15.556Z,22.92
2018-07-10T11:43:43.356Z,22.97
2018-07-10T11:46:12.540Z,22.94
2018-07-10T11:48:39.216Z,22.90
2018-07-10T11:51:05.878Z,22.96
2018-07-10T11:53:33.577Z,22.96
2018-07-10T11:56:00.294Z,22.94
2018-07-10T11:58:27.629Z,22.90
2018-07-10T12:00:54.308Z,22.90
2018-07-10T12:03:21.052Z,22.86
2018-07-10T12:05:47.829Z,22.85
2018-07-10T12:08:14.525Z,22.85
2018-07-10T12:10:41.235Z,22.81
2018-07-10T12:13:07.990Z,22.86
2018-07-10T12:15:34.641Z,22.86
2018-07-10T12:18:03.614Z,22.89
2018-07-10T12:20:33.830Z,22.84
2018-07-10T12:23:01.316Z,22.82
2018-07-10T12:25:31.737Z,22.82
2018-07-10T12:27:58.404Z,22.74
2018-07-10T12:30:25.104Z,22.77
2018-07-10T12:32:51.757Z,22.83
2018-07-10T12:35:18.433Z,22.77
2018-07-10T12:37:45.128Z,22.85
2018-07-10T12:40:11.805Z,22.85
2018-07-10T12:42:39.645Z,22.77
2018-07-10T12:45:06.647Z,22.80
2018-07-10T12:47:33.978Z,22.80
2018-07-10T12:50:01.587Z,22.83
2018-07-10T12:52:28.245Z,22.85
2018-07-10T12:54:56.265Z,22.83
2018-07-10T12:57:22.966Z,22.81
2018-07-10T12:59:49.885Z,22.78
2018-07-10T13:02:16.573Z,22.76
2018-07-10T13:04:43.253Z,22.80
2018-07-10T13:07:09.921Z,22.81
2018-07-10T13:09:36.586Z,22.73
2018-07-10T13:12:04.337Z,22.82
2018-07-10T13:14:34.017Z,22.75
2018-07-10T13:17:00.722Z,22.75
2018-07-10T13:19:27.401Z,22.72
2018-07-10T13:21:54.082Z,22.75
2018-07-10T13:24:20.888Z,22.78
2018-07-10T13:26:47.557Z,22.75
2018-07-10T13:29:14.221Z,22.77
2018-07-10T13:31:40.876Z,22.82
2018-07-10T13:34:07.547Z,22.73
2018-07-10T13:36:34.267Z,22.76
2018-07-10T13:39:02.041Z,22.73
2018-07-10T13:41:28.724Z,22.76
2018-07-10T13:43:55.386Z,22.75
2018-07-10T13:46:22.033Z,22.67
2018-07-10T13:48:48.945Z,22.72
2018-07-10T13:51:15.607Z,22.68
2018-07-10T13:53:42.258Z,22.72
2018-07-10T13:56:12.078Z,22.72
2018-07-10T13:58:38.758Z,22.75
2018-07-10T14:01:07.837Z,22.74
2018-07-10T14:03:35.196Z,22.76
2018-07-10T14:06:03.741Z,22.74
2018-07-10T14:08:31.236Z,22.74
2018-07-10T14:10:57.917Z,22.68
2018-07-10T14:13:24.598Z,22.70
2018-07-10T14:15:51.265Z,22.71
2018-07-10T14:18:17.971Z,22.74
2018-07-10T14:20:49.753Z,22.74
2018-07-10T14:23:16.420Z,22.68
2018-07-10T14:25:43.167Z,22.70
2018-07-10T14:28:10.201Z,22.70
2018-07-10T14:30:37.221Z,22.73
2018-07-10T14:33:04.703Z,22.69
2018-07-10T14:35:32.109Z,22.64
2018-07-10T14:37:59.824Z,22.71
2018-07-10T14:40:26.497Z,22.68
2018-07-10T14:42:53.178Z,22.70
2018-07-10T14:45:19.842Z,22.72
2018-07-10T14:47:46.857Z,22.76
2018-07-10T14:50:13.619Z,22.72
2018-07-10T14:52:40.313Z,22.75
2018-07-10T14:55:06.988Z,22.74
2018-07-10T14:57:34.850Z,22.69
2018-07-10T15:00:03.350Z,22.66
2018-07-10T15:02:31.713Z,22.71
2018-07-10T15:04:58.417Z,22.71
2018-07-10T15:07:25.087Z,22.71
2018-07-10T15:09:51.789Z,22.64
2018-07-10T15:12:18.485Z,22.69
2018-07-10T15:14:45.238Z,22.68
2018-07-10T15:17:17.517Z,22.69
2018-07-10T15:19:44.221Z,22.64
2018-07-10T15:22:11.334Z,22.67
2018-07-10T15:24:38.014Z,22.72
2018-07-10T15:27:04.782Z,22.70
2018-07-10T15:29:32.181Z,22.71
2018-07-10T15:31:59.481Z,22.75
2018-07-10T15:34:27.136Z,22.74
2018-07-10T15:36:53.930Z,22.73
2018-07-10T15:39:20.667Z,22.74
2018-07-10T15:41:47.427Z,22.74
2018-07-10T15:44:14.073Z,22.74
2018-07-10T15:46:40.814Z,22.76
2018-07-10T15:49:07.484Z,22.72
2018-07-10T15:51:35.049Z,22.72
2018-07-10T15:54:03.902Z,22.71
2018-07-10T15:56:31.861Z,22.72
2018-07-10T15:58:58.541Z,22.75
2018-07-10T16:01:25.213Z,22.72
2018-07-10T16:03:52.189Z,22.71
2018-07-10T16:06:18.978Z,22.73
2018-07-10T16:08:45.593Z,22.73
2018-07-10T16:11:12.278Z,22.74
2018-07-10T16:13:42.062Z,22.75
2018-07-10T16:16:10.539Z,22.73
2018-07-10T16:18:37.222Z,22.72
2018-07-10T16:21:05.440Z,22.72
2018-07-10T16:23:34.017Z,22.75
2018-07-10T16:26:12.117Z,22.73
2018-07-10T16:28:39.492Z,22.71
2018-07-10T16:31:06.855Z,22.68
2018-07-10T16:33:34.295Z,22.69
2018-07-10T16:36:04.145Z,22.70
2018-07-10T16:38:30.845Z,22.69
2018-07-10T16:41:03.746Z,22.72
2018-07-10T16:43:31.860Z,22.65
2018-07-10T16:46:00.128Z,22.65
2018-07-10T16:48:29.553Z,22.68
2018-07-10T16:51:04.680Z,22.69
2018-07-10T16:53:32.205Z,22.69
2018-07-10T16:55:58.904Z,22.71
2018-07-10T16:58:25.596Z,22.71
2018-07-10T17:00:52.261Z,22.74
2018-07-10T17:03:18.945Z,22.72
2018-07-10T17:05:46.133Z,22.71
2018-07-10T17:08:12.820Z,22.69
2018-07-10T17:10:39.570Z,22.71
2018-07-10T17:13:06.258Z,22.74
2018-07-10T17:15:34.221Z,22.71
2018-07-10T17:18:00.956Z,22.71
2018-07-10T17:20:27.715Z,22.66
2018-07-10T17:22:54.401Z,22.65
2018-07-10T17:25:21.276Z,22.68
2018-07-10T17:27:48.759Z,22.66
2018-07-10T17:30:15.460Z,22.70
2018-07-10T17:32:42.133Z,22.70
2018-07-10T17:35:08.947Z,22.68
2018-07-10T17:37:39.858Z,22.70
2018-07-10T17:40:06.594Z,22.68
2018-07-10T17:42:34.212Z,22.67
2018-07-10T17:45:03.309Z,22.68
2018-07-10T17:47:30.081Z,22.65
2018-07-10T17:49:56.774Z,22.68
2018-07-10T17:52:23.474Z,22.68
2018-07-10T17:54:50.490Z,22.70
2018-07-10T17:57:17.367Z,22.68
2018-07-10T17:59:44.049Z,22.66
2018-07-10T18:02:10.839Z,22.66
2018-07-10T18:04:37.521Z,22.68
2018-07-10T18:07:04.821Z,22.70
2018-07-10T18:09:32.247Z,22.75
2018-07-10T18:11:58.928Z,22.65
2018-07-10T18:14:25.605Z,22.68
2018-07-10T18:16:52.413Z,22.70
2018-07-10T18:19:19.115Z,22.70
2018-07-10T18:21:46.005Z,22.69
2018-07-10T18:24:12.840Z,22.71
2018-07-10T18:26:39.618Z,22.76
2018-07-10T18:29:06.486Z,22.66
2018-07-10T18:31:34.254Z,22.72
2018-07-10T18:34:01.974Z,22.64
2018-07-10T18:36:28.802Z,22.58
2018-07-10T18:38:55.595Z,22.63
2018-07-10T18:41:22.487Z,22.71
2018-07-10T18:43:49.523Z,22.71
2018-07-10T18:46:16.531Z,22.66
2018-07-10T18:48:43.790Z,22.66
2018-07-10T18:51:10.858Z,22.71
2018-07-10T18:53:37.879Z,22.73
2018-07-10T18:56:05.291Z,22.69
2018-07-10T18:58:36.968Z,22.71
2018-07-10T19:01:07.039Z,22.73
2018-07-10T19:03:35.667Z,22.69
2018-07-10T19:06:08.069Z,22.69
2018-07-10T19:08:36.392Z,22.69
2018-07-10T19:11:04.501Z,22.67
2018-07-10T19:13:33.669Z,22.72
2018-07-10T19:16:02.135Z,22.70
2018-07-10T19:18:29.122Z,22.68
2018-07-10T19:20:59.269Z,22.70
2018-07-10T19:23:29.945Z,22.70
2018-07-10T19:25:56.956Z,22.65
2018-07-10T19:28:23.963Z,22.65
2018-07-10T19:31:25.285Z,22.69
2018-07-10T19:33:53.003Z,22.45
2018-07-10T19:36:20.055Z,22.60
2018-07-10T19:38:47.088Z,22.58
2018-07-10T19:41:14.277Z,22.62
2018-07-10T19:43:41.516Z,22.64
2018-07-10T19:46:10.616Z,22.65
2018-07-10T19:48:37.609Z,22.59
2018-07-10T19:51:06.557Z,22.60
2018-07-10T19:53:34.739Z,22.59
2018-07-10T19:56:03.932Z,22.56
2018-07-10T19:58:35.199Z,22.62
2018-07-10T20:01:07.605Z,22.62
2018-07-10T20:03:38.200Z,22.52
2018-07-10T20:06:12.123Z,22.56
2018-07-10T20:08:43.900Z,22.57
2018-07-10T20:11:10.873Z,22.56
2018-07-10T20:13:43.743Z,22.50
2018-07-10T20:16:13.392Z,22.51
2018-07-10T20:18:45.667Z,22.47
2018-07-10T20:21:15.621Z,22.40
2018-07-10T20:23:44.139Z,22.46
2018-07-10T20:27:20.127Z,22.45
2018-07-10T20:30:52.074Z,22.10
2018-07-10T20:33:24.850Z,21.96
2018-07-10T20:35:51.928Z,22.24
2018-07-10T20:38:19.784Z,22.44
2018-07-10T20:40:47.570Z,22.49
2018-07-10T20:43:15.852Z,22.53
2018-07-10T20:45:43.750Z,22.46
2018-07-10T20:48:16.200Z,22.52
2018-07-10T20:51:17.903Z,22.42
2018-07-10T20:53:53.022Z,22.24
2018-07-10T20:56:27.010Z,22.32
2018-07-10T20:58:58.706Z,22.36
2018-07-10T21:01:27.986Z,22.42
2018-07-10T21:03:56.462Z,22.45
2018-07-10T21:06:33.885Z,22.50
2018-07-10T21:09:03.297Z,22.42
2018-07-10T21:11:33.784Z,22.38
2018-07-10T21:14:04.150Z,22.42
2018-07-10T21:16:35.534Z,22.53
2018-07-10T21:19:08.240Z,22.53
2018-07-10T21:22:10.111Z,22.54
2018-07-10T21:24:42.804Z,22.27
2018-07-10T21:27:10.888Z,22.31
2018-07-10T21:29:43.393Z,22.38
2018-07-10T21:32:16.094Z,22.43
2018-07-10T21:34:44.957Z,22.47
2018-07-10T21:38:18.090Z,22.47
2018-07-10T21:41:52.850Z,22.01
2018-07-10T21:44:23.284Z,21.86
2018-07-10T21:46:51.026Z,22.14
2018-07-10T21:49:24.125Z,22.28
2018-07-10T21:51:50.813Z,22.33
2018-07-10T21:54:17.665Z,22.36
2018-07-10T21:56:44.460Z,22.39
2018-07-10T21:59:11.629Z,22.37
2018-07-10T22:01:46.796Z,22.34
2018-07-10T22:04:22.509Z,22.40
2018-07-10T22:06:49.417Z,22.33
2018-07-10T22:09:16.356Z,22.46
2018-07-10T22:11:43.731Z,22.47
2018-07-10T22:14:10.817Z,22.47
2018-07-10T22:16:38.905Z,22.43
2018-07-10T22:19:05.625Z,22.33
2018-07-10T22:21:34.052Z,22.35
2018-07-10T22:24:01.336Z,22.39
2018-07-10T22:26:27.993Z,22.33
2018-07-10T22:28:54.804Z,22.36
2018-07-10T22:31:27.330Z,22.38
2018-07-10T22:33:53.978Z,22.32
2018-07-10T22:36:20.648Z,22.34
2018-07-10T22:38:47.334Z,22.37
2018-07-10T22:41:14.605Z,22.37
2018-07-10T22:43:41.267Z,22.41
2018-07-10T22:46:07.941Z,22.41
2018-07-10T22:48:34.609Z,22.40
2018-07-10T22:51:02.213Z,22.37
2018-07-10T22:53:28.901Z,22.33
2018-07-10T22:55:55.577Z,22.36
2018-07-10T22:58:22.277Z,22.40
2018-07-10T23:00:48.973Z,22.35
2018-07-10T23:03:15.632Z,22.33
2018-07-10T23:05:42.313Z,22.31
2018-07-10T23:08:09.149Z,22.32
2018-07-10T23:10:35.845Z,22.31
2018-07-10T23:13:03.538Z,22.26
2018-07-10T23:15:30.229Z,22.27
2018-07-10T23:17:56.909Z,22.36
2018-07-10T23:20:24.078Z,22.37
2018-07-10T23:22:53.853Z,22.32
2018-07-10T23:25:21.728Z,22.33
2018-07-10T23:27:48.585Z,22.38
2018-07-10T23:30:15.237Z,22.35
2018-07-10T23:32:42.858Z,22.37
2018-07-10T23:35:09.977Z,22.38
2018-07-10T23:37:37.438Z,22.34
2018-07-10T23:40:05.565Z,22.34
2018-07-10T23:42:35.207Z,22.38
2018-07-10T23:45:04.968Z,22.35
2018-07-10T23:47:34.336Z,22.37
2018-07-10T23:50:22.114Z,22.35
2018-07-10T23:52:54.982Z,22.22
2018-07-10T23:55:21.652Z,22.25
